Time;durP1;ratioP1;P1;durP2;ratioP2;P2;SDS_P1;SDS_P2;PMS_P1;PMS_P2;Temp;Humidity;BMP_temperature;BMP_pressure;BME280_temperature;BME280_humidity;BME280_pressure;Samples;Min_cycle;Max_cycle;Signal;HPM_P1;HPM_P2
2023/05/31 00:01:06;;;;;;;11.35;5.22;;;;;;;15.39;100.00;98928.03;4483755;32;20118;-67
2023/05/31 00:03:35;;;;;;;15.45;5.18;;;;;;;15.35;100.00;98935.47;4483922;32;20115;-67
2023/05/31 00:06:02;;;;;;;9.95;4.72;;;;;;;15.43;100.00;98926.72;4483816;31;20092;-68
2023/05/31 00:08:29;;;;;;;11.95;5.68;;;;;;;15.46;100.00;98928.19;4484069;31;20092;-67
2023/05/31 00:10:57;;;;;;;7.22;4.32;;;;;;;15.51;100.00;98923.28;4484003;31;20142;-68
2023/05/31 00:13:24;;;;;;;6.75;4.10;;;;;;;15.51;100.00;98920.63;4473853;31;20151;-67
2023/05/31 00:15:52;;;;;;;7.50;4.18;;;;;;;15.58;100.00;98911.06;4475532;32;20565;-67
2023/05/31 00:18:19;;;;;;;7.10;3.95;;;;;;;15.72;100.00;98914.84;4483490;31;20171;-67
2023/05/31 00:20:47;;;;;;;7.87;4.37;;;;;;;15.75;100.00;98912.69;4483645;31;20142;-67
2023/05/31 00:23:14;;;;;;;7.32;4.10;;;;;;;15.82;100.00;98906.75;4483549;32;20123;-68
2023/05/31 00:25:42;;;;;;;6.72;4.07;;;;;;;16.01;100.00;98908.22;4483633;32;20116;-68
2023/05/31 00:28:09;;;;;;;6.40;3.53;;;;;;;16.01;100.00;98906.41;4483423;32;20473;-67
2023/05/31 00:30:36;;;;;;;8.52;4.12;;;;;;;15.99;100.00;98894.34;4483385;31;20092;-67
2023/05/31 00:33:05;;;;;;;7.40;3.83;;;;;;;16.00;100.00;98902.09;4484953;32;20120;-67
2023/05/31 00:35:32;;;;;;;8.90;4.20;;;;;;;15.99;100.00;98905.75;4485955;31;20115;-67
2023/05/31 00:38:03;;;;;;;11.95;4.15;;;;;;;16.05;100.00;98905.06;4485645;32;20163;-67
2023/05/31 00:40:31;;;;;;;6.97;3.85;;;;;;;16.07;100.00;98903.06;4486062;31;20076;-67
2023/05/31 00:42:59;;;;;;;5.03;3.22;;;;;;;16.08;100.00;98910.03;4485776;32;20529;-67
2023/05/31 00:45:28;;;;;;;7.22;3.85;;;;;;;16.11;100.00;98907.03;4484534;32;20104;-67
2023/05/31 00:47:56;;;;;;;11.95;4.00;;;;;;;16.19;100.00;98902.72;4485894;31;20060;-68
2023/05/31 00:50:24;;;;;;;6.75;3.45;;;;;;;16.13;100.00;98901.59;4485761;31;20438;-68
2023/05/31 00:52:53;;;;;;;8.63;3.83;;;;;;;16.13;100.00;98902.41;4484514;32;20171;-67
2023/05/31 00:55:21;;;;;;;12.48;4.40;;;;;;;16.07;100.00;98891.69;4484431;32;20135;-67
2023/05/31 00:57:48;;;;;;;6.37;3.25;;;;;;;16.05;100.00;98898.94;4485800;31;20097;-67
2023/05/31 01:00:16;;;;;;;11.32;3.42;;;;;;;16.19;100.00;98889.50;4485372;31;20131;-67
2023/05/31 01:02:43;;;;;;;7.03;3.28;;;;;;;16.34;100.00;98898.38;4484480;32;20383;-67
2023/05/31 01:05:11;;;;;;;5.78;3.45;;;;;;;16.31;100.00;98896.87;4485696;32;20156;-67
2023/05/31 01:07:38;;;;;;;7.62;3.22;;;;;;;16.32;100.00;98884.47;4485552;31;20088;-67
2023/05/31 01:10:06;;;;;;;9.20;3.50;;;;;;;16.28;100.00;98891.13;4485583;31;20157;-67
2023/05/31 01:13:41;;;;;;;7.20;3.50;;;;;;;16.27;100.00;98886.84;4481474;31;20406;-67
2023/05/31 01:16:35;;;;;;;6.40;3.62;;;;;;;16.20;100.00;98891.16;4383237;32;20128;-67
2023/05/31 01:19:07;;;;;;;5.53;3.33;;;;;;;16.19;100.00;98889.50;4378203;32;20106;-67
2023/05/31 01:21:43;;;;;;;5.35;3.08;;;;;;;16.27;100.00;98889.47;4390669;32;20141;-67
2023/05/31 01:24:19;;;;;;;6.28;3.92;;;;;;;16.26;100.00;98883.38;4390593;32;20094;-67
2023/05/31 01:26:50;;;;;;;6.82;3.40;;;;;;;16.20;100.00;98888.50;4390756;32;20532;-67
2023/05/31 01:29:19;;;;;;;5.95;3.60;;;;;;;16.17;100.00;98884.41;4390379;32;20324;-68
2023/05/31 01:31:48;;;;;;;8.23;3.65;;;;;;;16.16;100.00;98892.50;4378385;32;20181;-68
2023/05/31 01:34:15;;;;;;;8.57;3.53;;;;;;;16.14;100.00;98897.97;4390446;32;20170;-67
2023/05/31 01:36:42;;;;;;;10.40;3.62;;;;;;;16.10;100.00;98894.81;4378150;32;20478;-67
2023/05/31 01:39:11;;;;;;;5.47;3.25;;;;;;;16.00;100.00;98896.00;4390828;32;20098;-67
2023/05/31 01:41:43;;;;;;;8.27;3.33;;;;;;;15.98;100.00;98888.25;4378277;32;20112;-67
2023/05/31 01:44:13;;;;;;;4.80;3.03;;;;;;;15.90;100.00;98891.72;4378072;32;20162;-67
2023/05/31 01:46:41;;;;;;;6.82;3.30;;;;;;;15.85;100.00;98894.06;4420542;32;20166;-67
2023/05/31 01:49:09;;;;;;;7.15;3.53;;;;;;;15.79;100.00;98884.97;4454115;32;20106;-68
2023/05/31 01:51:37;;;;;;;8.73;3.53;;;;;;;15.70;100.00;98891.25;4454158;32;20109;-68
2023/05/31 01:54:05;;;;;;;6.12;3.33;;;;;;;15.63;100.00;98897.34;4453992;32;20108;-67
2023/05/31 01:56:32;;;;;;;6.25;3.17;;;;;;;15.61;100.00;98887.78;4452991;32;20103;-67
2023/05/31 01:59:00;;;;;;;6.65;3.37;;;;;;;15.64;100.00;98893.69;4452840;32;20123;-67
2023/05/31 02:01:27;;;;;;;5.78;3.60;;;;;;;15.69;100.00;98884.28;4452879;32;20101;-67
2023/05/31 02:03:56;;;;;;;9.25;3.60;;;;;;;15.74;100.00;98889.88;4454182;32;20155;-67
2023/05/31 02:06:26;;;;;;;7.05;3.70;;;;;;;15.79;100.00;98889.41;4453039;32;20443;-67
2023/05/31 02:08:54;;;;;;;4.85;3.10;;;;;;;15.83;100.00;98892.56;4454060;32;20176;-68
2023/05/31 02:11:23;;;;;;;8.93;3.30;;;;;;;15.78;100.00;98898.34;4452860;32;20085;-67
2023/05/31 02:13:54;;;;;;;8.00;3.85;;;;;;;15.72;100.00;98896.34;4465911;32;20146;-68
2023/05/31 02:16:21;;;;;;;5.57;2.92;;;;;;;15.71;100.00;98892.88;4480016;32;20120;-68
2023/05/31 02:18:51;;;;;;;5.07;3.00;;;;;;;15.74;100.00;98887.25;4485460;31;20111;-67
2023/05/31 02:21:21;;;;;;;9.80;3.30;;;;;;;15.84;100.00;98902.97;4485452;32;20106;-67
2023/05/31 02:23:48;;;;;;;9.35;2.97;;;;;;;15.90;100.00;98898.84;4485488;32;20101;-68
2023/05/31 02:26:17;;;;;;;5.78;3.42;;;;;;;15.89;100.00;98894.53;4485138;31;20114;-68
2023/05/31 02:28:44;;;;;;;5.12;3.40;;;;;;;15.89;100.00;98897.19;4485224;32;20080;-68
2023/05/31 02:31:12;;;;;;;9.80;3.50;;;;;;;15.89;100.00;98900.62;4485076;31;20096;-67
2023/05/31 02:33:42;;;;;;;8.45;3.28;;;;;;;15.88;100.00;98903.44;4485201;32;20489;-67
2023/05/31 02:36:11;;;;;;;6.05;3.40;;;;;;;15.89;100.00;98905.09;4484975;31;20104;-68
2023/05/31 02:38:38;;;;;;;8.85;2.87;;;;;;;15.85;100.00;98903.78;4485297;31;20096;-67
2023/05/31 02:41:06;;;;;;;5.70;3.03;;;;;;;15.84;100.00;98899.50;4485074;31;20152;-67
2023/05/31 02:43:33;;;;;;;5.75;3.05;;;;;;;15.85;100.00;98893.22;4484942;31;20473;-67
2023/05/31 02:46:01;;;;;;;10.38;3.00;;;;;;;15.90;100.00;98909.41;4485189;31;20104;-67
2023/05/31 02:48:30;;;;;;;5.00;2.62;;;;;;;15.86;100.00;98898.34;4485030;31;20632;-67
2023/05/31 02:50:57;;;;;;;10.73;3.50;;;;;;;15.91;100.00;98908.38;4485011;32;20171;-67
2023/05/31 02:53:26;;;;;;;5.72;2.65;;;;;;;15.93;100.00;98909.06;4485152;32;20148;-68
2023/05/31 02:55:54;;;;;;;4.10;2.95;;;;;;;15.98;100.00;98911.22;4484177;31;20502;-67
2023/05/31 02:58:22;;;;;;;6.82;3.45;;;;;;;16.00;100.00;98907.38;4485144;32;20096;-67
2023/05/31 03:00:50;;;;;;;4.78;2.92;;;;;;;15.98;100.00;98906.72;4484823;32;20473;-67
2023/05/31 03:03:19;;;;;;;4.93;3.03;;;;;;;15.99;100.00;98904.91;4485088;32;20506;-67
2023/05/31 03:05:47;;;;;;;8.02;3.20;;;;;;;15.99;100.00;98905.75;4484798;32;20164;-67
2023/05/31 03:08:16;;;;;;;4.60;2.85;;;;;;;16.03;100.00;98912.31;4485007;32;20099;-67
2023/05/31 03:10:43;;;;;;;9.15;3.08;;;;;;;16.07;100.00;98911.00;4484850;32;20105;-67
2023/05/31 03:13:11;;;;;;;6.20;3.35;;;;;;;16.09;100.00;98916.13;4476289;32;20173;-67
2023/05/31 03:15:38;;;;;;;8.43;3.28;;;;;;;16.08;100.00;98920.59;4474744;32;20112;-68
2023/05/31 03:18:05;;;;;;;7.30;3.22;;;;;;;16.12;100.00;98916.63;4484678;32;20481;-68
2023/05/31 03:20:34;;;;;;;8.02;3.05;;;;;;;16.10;100.00;98920.41;4484769;32;20147;-67
2023/05/31 03:23:03;;;;;;;11.23;3.15;;;;;;;16.03;100.00;98924.72;4484782;31;20161;-67
2023/05/31 03:25:30;;;;;;;8.57;2.90;;;;;;;16.04;100.00;98924.56;4484616;32;20100;-67
2023/05/31 03:27:57;;;;;;;5.47;2.90;;;;;;;16.07;100.00;98926.84;4484299;32;20116;-68
2023/05/31 03:30:30;;;;;;;5.75;3.28;;;;;;;16.08;100.00;98925.87;4484640;32;20111;-68
2023/05/31 03:32:57;;;;;;;5.65;3.15;;;;;;;16.07;100.00;98923.41;4484551;32;20162;-67
2023/05/31 03:35:25;;;;;;;7.55;3.42;;;;;;;16.04;100.00;98935.13;4484658;32;20371;-67
2023/05/31 03:37:53;;;;;;;5.87;3.17;;;;;;;16.02;100.00;98931.84;4484162;32;20153;-67
2023/05/31 03:40:20;;;;;;;4.45;2.67;;;;;;;16.02;100.00;98931.00;4484392;31;20148;-67
2023/05/31 03:42:48;;;;;;;7.05;3.00;;;;;;;15.98;100.00;98930.50;4484356;32;20168;-67
2023/05/31 03:45:15;;;;;;;8.52;3.28;;;;;;;15.95;100.00;98936.13;4484562;32;20258;-67
2023/05/31 03:47:43;;;;;;;8.15;3.17;;;;;;;15.94;100.00;98930.03;4484306;31;20100;-68
2023/05/31 03:50:11;;;;;;;6.05;3.30;;;;;;;15.88;100.00;98930.72;4484261;31;20084;-67
2023/05/31 03:52:38;;;;;;;6.90;2.97;;;;;;;15.87;100.00;98939.63;4484246;31;20116;-68
2023/05/31 03:55:06;;;;;;;5.22;2.55;;;;;;;15.87;100.00;98933.53;4484073;32;20096;-67
2023/05/31 03:57:36;;;;;;;8.57;3.20;;;;;;;15.85;100.00;98941.63;4484174;31;20613;-68
2023/05/31 04:00:05;;;;;;;8.15;3.40;;;;;;;15.83;100.00;98938.28;4484148;32;20122;-67
2023/05/31 04:02:39;;;;;;;10.13;2.95;;;;;;;15.84;100.00;98933.84;4483773;31;20108;-67
2023/05/31 04:05:20;;;;;;;7.65;3.25;;;;;;;15.86;100.00;98940.59;4484294;32;20092;-67
2023/05/31 04:07:47;;;;;;;4.80;2.97;;;;;;;15.83;100.00;98942.75;4485852;31;20428;-67
2023/05/31 04:10:15;;;;;;;5.32;2.62;;;;;;;15.84;100.00;98944.41;4486407;32;20431;-67
2023/05/31 04:12:42;;;;;;;8.10;3.40;;;;;;;15.92;100.00;98947.03;4480692;31;20426;-67
2023/05/31 04:15:10;;;;;;;5.35;3.03;;;;;;;15.91;100.00;98946.22;4473195;32;20557;-67
2023/05/31 04:17:37;;;;;;;4.05;2.87;;;;;;;15.94;100.00;98955.63;4480429;31;20096;-67
2023/05/31 04:20:08;;;;;;;6.40;3.28;;;;;;;16.01;100.00;98948.69;4467473;32;20161;-67
2023/05/31 04:22:35;;;;;;;5.90;2.80;;;;;;;16.02;100.00;98947.69;4470357;32;20089;-67
2023/05/31 04:25:03;;;;;;;6.30;2.92;;;;;;;16.09;100.00;98953.97;4470179;32;20100;-66
2023/05/31 04:27:32;;;;;;;5.97;3.40;;;;;;;16.11;100.00;98953.78;4469856;32;20114;-67
2023/05/31 04:30:04;;;;;;;5.72;2.95;;;;;;;16.19;100.00;98948.47;4469654;32;20685;-67
2023/05/31 04:32:36;;;;;;;5.35;2.78;;;;;;;16.25;100.00;98960.22;4462408;32;20136;-67
2023/05/31 04:35:05;;;;;;;7.18;3.22;;;;;;;16.23;100.00;98952.44;4460880;32;20586;-67
2023/05/31 04:37:35;;;;;;;14.50;3.62;;;;;;;16.37;100.00;98956.19;4460450;32;20092;-68
2023/05/31 04:40:08;;;;;;;6.87;3.25;;;;;;;16.49;100.00;98960.12;4462061;32;20127;-68
2023/05/31 04:42:37;;;;;;;8.55;3.10;;;;;;;16.62;100.00;98956.94;4456346;32;20136;-68
2023/05/31 04:45:06;;;;;;;9.77;3.55;;;;;;;16.68;99.76;98963.34;4454916;32;20123;-68
2023/05/31 04:47:35;;;;;;;6.30;2.95;;;;;;;16.78;99.52;98963.16;4456082;32;20175;-68
2023/05/31 04:50:03;;;;;;;8.02;3.17;;;;;;;16.87;98.86;98966.63;4469757;32;20116;-68
2023/05/31 04:52:31;;;;;;;6.45;2.60;;;;;;;16.94;99.80;98970.22;4466770;32;20122;-66
2023/05/31 04:55:00;;;;;;;4.85;2.62;;;;;;;16.97;98.75;98968.06;4468818;32;20176;-66
2023/05/31 04:57:28;;;;;;;11.65;3.45;;;;;;;16.94;98.12;98970.22;4469509;32;20104;-66
2023/05/31 04:59:59;;;;;;;6.68;2.53;;;;;;;17.06;96.68;98976.75;4465367;32;20096;-66
2023/05/31 05:02:26;;;;;;;7.57;2.85;;;;;;;17.12;97.42;98976.09;4466196;32;20439;-66
2023/05/31 05:04:55;;;;;;;5.47;3.05;;;;;;;17.15;95.88;98980.19;4465983;32;20123;-67
2023/05/31 05:07:22;;;;;;;12.43;3.03;;;;;;;17.18;95.90;98974.56;4460197;32;20118;-67
2023/05/31 05:09:49;;;;;;;7.05;2.90;;;;;;;17.22;95.79;98985.63;4467732;32;20492;-67
2023/05/31 05:12:17;;;;;;;9.00;3.12;;;;;;;17.23;95.53;98977.53;4466225;32;20123;-68
2023/05/31 05:14:44;;;;;;;7.97;2.72;;;;;;;17.37;96.34;98983.88;4467289;32;20124;-67
2023/05/31 05:17:11;;;;;;;6.45;2.83;;;;;;;17.37;95.00;98978.59;4468405;32;20152;-68
2023/05/31 05:19:39;;;;;;;7.12;2.97;;;;;;;17.48;93.80;98980.00;4464741;32;20442;-68
2023/05/31 05:22:07;;;;;;;6.18;3.08;;;;;;;17.50;94.16;98985.94;4460086;32;20477;-67
2023/05/31 05:24:34;;;;;;;6.00;2.90;;;;;;;17.66;94.10;98977.06;4469175;32;20105;-67
2023/05/31 05:27:03;;;;;;;4.72;2.65;;;;;;;17.70;93.66;98981.81;4469379;32;20480;-68
2023/05/31 05:29:31;;;;;;;6.82;2.70;;;;;;;17.79;94.08;98987.03;4469463;32;20092;-68
2023/05/31 05:31:58;;;;;;;7.87;2.78;;;;;;;17.93;91.18;98983.66;4467485;32;20130;-68
2023/05/31 05:34:26;;;;;;;10.38;3.15;;;;;;;17.99;89.93;98992.72;4468642;32;20166;-68
2023/05/31 05:36:54;;;;;;;12.95;2.75;;;;;;;18.07;92.52;98989.97;4468680;32;20103;-68
2023/05/31 05:39:21;;;;;;;6.85;2.95;;;;;;;18.08;92.08;98987.16;4468122;32;20614;-68
2023/05/31 05:41:48;;;;;;;4.82;3.08;;;;;;;18.13;91.92;98994.56;4468849;32;20116;-69
2023/05/31 05:44:16;;;;;;;8.73;3.35;;;;;;;18.23;90.95;98997.78;4468706;32;20096;-67
2023/05/31 05:46:43;;;;;;;9.98;3.00;;;;;;;18.27;89.12;98995.56;4468280;32;20108;-68
2023/05/31 05:49:12;;;;;;;6.00;2.80;;;;;;;18.31;87.93;98996.88;4468872;32;20188;-68
2023/05/31 05:51:40;;;;;;;9.68;3.03;;;;;;;18.48;89.42;98996.69;4468249;32;20109;-68
2023/05/31 05:54:07;;;;;;;7.20;3.67;;;;;;;18.50;88.00;98989.38;4468323;32;20104;-69
2023/05/31 05:56:35;;;;;;;9.73;2.80;;;;;;;18.53;88.02;98989.84;4469021;32;20092;-69
2023/05/31 05:59:02;;;;;;;5.87;2.75;;;;;;;18.57;85.99;98996.41;4468882;32;20117;-67
2023/05/31 06:01:31;;;;;;;9.00;2.78;;;;;;;18.62;85.96;98996.72;4461497;32;20432;-69
2023/05/31 06:04:02;;;;;;;7.05;2.67;;;;;;;18.71;87.69;98999.25;4452157;32;20458;-69
2023/05/31 06:06:31;;;;;;;22.23;3.60;;;;;;;19.06;85.24;98999.50;4463056;32;20766;-68
2023/05/31 06:08:59;;;;;;;8.35;2.95;;;;;;;19.20;85.73;99009.28;4461031;32;20537;-67
2023/05/31 06:11:26;;;;;;;5.35;2.78;;;;;;;19.29;85.71;99005.50;4464371;32;20131;-67
2023/05/31 06:13:57;;;;;;;7.10;2.65;;;;;;;19.39;84.64;99010.50;4463467;32;20116;-68
2023/05/31 06:16:25;;;;;;;5.82;2.80;;;;;;;19.50;84.52;99014.53;4464718;32;20104;-69
2023/05/31 06:18:54;;;;;;;11.25;3.75;;;;;;;19.56;83.42;99011.13;4457613;32;20499;-69
2023/05/31 06:21:22;;;;;;;8.07;2.87;;;;;;;19.53;84.83;99021.28;4461120;32;20089;-69
2023/05/31 06:23:50;;;;;;;8.57;2.72;;;;;;;19.77;83.07;99023.63;4461530;32;20651;-68
2023/05/31 06:26:20;;;;;;;16.62;2.85;;;;;;;19.91;76.28;99019.22;4462043;32;20112;-70
2023/05/31 06:28:48;;;;;;;4.95;2.60;;;;;;;20.09;77.20;99012.59;4460262;32;20116;-69
2023/05/31 06:31:16;;;;;;;7.15;2.78;;;;;;;20.07;72.15;99012.00;4461174;32;20089;-69
2023/05/31 06:33:44;;;;;;;4.75;2.50;;;;;;;20.14;76.78;99015.53;4448927;32;20109;-67
2023/05/31 06:36:11;;;;;;;5.28;2.58;;;;;;;20.29;75.46;99013.59;4463102;32;20123;-70
2023/05/31 06:38:38;;;;;;;8.55;2.33;;;;;;;20.32;74.73;99017.72;4465620;32;20175;-68
2023/05/31 06:41:09;;;;;;;6.25;2.83;;;;;;;20.42;73.29;99012.03;4468315;32;20105;-68
2023/05/31 06:43:36;;;;;;;4.37;2.45;;;;;;;20.52;72.10;99020.50;4463247;32;20119;-70
2023/05/31 06:46:09;;;;;;;6.00;2.70;;;;;;;20.64;70.42;99010.94;4463213;32;20096;-67
2023/05/31 06:48:40;;;;;;;6.22;2.80;;;;;;;20.68;69.03;99014.88;4461059;32;20077;-66
2023/05/31 06:51:12;;;;;;;5.03;2.75;;;;;;;20.57;64.24;99007.41;4462621;32;20123;-66
2023/05/31 06:53:45;;;;;;;5.70;2.37;;;;;;;20.63;66.13;99011.94;4461323;32;20097;-67
2023/05/31 06:56:12;;;;;;;11.10;2.97;;;;;;;20.89;66.17;99013.13;4462132;32;20153;-66
2023/05/31 06:58:41;;;;;;;5.10;3.17;;;;;;;21.13;66.21;99016.31;4461805;32;20202;-67
2023/05/31 07:01:08;;;;;;;6.32;2.95;;;;;;;21.19;64.64;99013.66;4463839;32;20114;-66
2023/05/31 07:03:35;;;;;;;5.32;2.70;;;;;;;20.83;63.20;99017.44;4459565;32;20478;-68
2023/05/31 07:06:03;;;;;;;4.03;2.35;;;;;;;20.91;67.08;99027.09;4462282;32;20097;-68
2023/05/31 07:08:30;;;;;;;5.75;2.78;;;;;;;20.86;65.13;99027.69;4461007;32;20152;-68
2023/05/31 07:11:00;;;;;;;7.50;3.00;;;;;;;20.70;66.19;99033.31;4462061;32;20120;-69
2023/05/31 07:13:28;;;;;;;4.55;2.95;;;;;;;20.49;64.54;99047.50;4459303;32;20148;-69
2023/05/31 07:15:55;;;;;;;5.78;2.80;;;;;;;20.28;66.76;99038.53;4458619;32;20104;-69
2023/05/31 07:18:22;;;;;;;5.85;2.78;;;;;;;20.48;68.45;99036.00;4457576;32;20119;-69
2023/05/31 07:20:51;;;;;;;28.38;3.90;;;;;;;20.70;67.23;99038.66;4458599;32;20604;-68
2023/05/31 07:23:18;;;;;;;6.87;3.05;;;;;;;20.56;66.68;99037.72;4458226;32;20807;-69
2023/05/31 07:25:45;;;;;;;4.12;2.17;;;;;;;20.58;67.23;99040.19;4462792;32;20122;-69
2023/05/31 07:28:13;;;;;;;5.68;3.05;;;;;;;20.59;65.44;99041.81;4460283;32;20526;-69
2023/05/31 07:30:40;;;;;;;6.00;2.95;;;;;;;20.84;69.11;99037.69;4458091;32;20097;-69
2023/05/31 07:33:07;;;;;;;6.70;3.10;;;;;;;20.89;65.23;99045.94;4459213;32;20108;-69
2023/05/31 07:35:35;;;;;;;6.20;2.65;;;;;;;20.83;66.53;99038.72;4461469;32;20134;-69
2023/05/31 07:38:02;;;;;;;8.27;2.87;;;;;;;20.77;65.32;99041.34;4465735;32;20115;-69
2023/05/31 07:40:30;;;;;;;5.57;3.08;;;;;;;20.63;65.99;99049.22;4461277;32;20154;-68
2023/05/31 07:42:57;;;;;;;6.80;2.78;;;;;;;20.74;69.26;99048.72;4463782;32;21646;-69
2023/05/31 07:45:25;;;;;;;6.25;3.30;;;;;;;20.92;67.85;99037.53;4466745;32;20114;-69
2023/05/31 07:47:52;;;;;;;8.52;2.95;;;;;;;21.14;65.39;99045.41;4465640;32;20254;-69
2023/05/31 07:50:19;;;;;;;12.48;3.17;;;;;;;21.00;67.36;99047.19;4465758;32;20117;-69
2023/05/31 07:52:49;;;;;;;11.77;3.12;;;;;;;20.87;64.96;99045.28;4467424;32;20489;-71
2023/05/31 07:55:17;;;;;;;4.05;2.75;;;;;;;21.10;66.31;99044.16;4462678;32;20092;-70
2023/05/31 07:57:44;;;;;;;6.32;2.78;;;;;;;21.13;64.98;99050.94;4466136;32;20499;-72
2023/05/31 08:00:15;;;;;;;12.40;3.08;;;;;;;21.18;63.85;99045.81;4463648;32;20111;-68
2023/05/31 08:02:42;;;;;;;6.15;2.90;;;;;;;21.26;65.32;99040.34;4460290;32;20126;-67
2023/05/31 08:05:10;;;;;;;7.22;3.20;;;;;;;21.38;65.55;99041.41;4463075;32;20481;-69
2023/05/31 08:07:37;;;;;;;8.13;2.95;;;;;;;21.55;67.16;99049.06;4461888;32;20115;-68
2023/05/31 08:10:05;;;;;;;6.68;2.62;;;;;;;21.79;64.54;99059.16;4457791;32;20102;-68
2023/05/31 08:12:35;;;;;;;8.88;2.90;;;;;;;21.80;62.22;99060.81;4461624;32;20553;-67
2023/05/31 08:15:02;;;;;;;8.80;3.10;;;;;;;21.72;64.68;99052.16;4456866;32;20093;-69
2023/05/31 08:17:32;;;;;;;10.40;2.78;;;;;;;21.77;61.94;99044.38;4460731;32;20097;-68
2023/05/31 08:19:59;;;;;;;6.03;2.95;;;;;;;21.74;65.12;99048.28;4461021;32;20180;-68
2023/05/31 08:22:26;;;;;;;8.88;3.15;;;;;;;21.85;61.51;99046.00;4453092;32;20097;-69
2023/05/31 08:24:56;;;;;;;8.50;3.12;;;;;;;21.80;59.43;99036.81;4463078;32;20159;-70
2023/05/31 08:27:23;;;;;;;7.53;2.92;;;;;;;21.87;59.85;99052.00;4463130;32;20139;-70
2023/05/31 08:29:50;;;;;;;5.15;2.50;;;;;;;21.95;58.41;99041.94;4463508;32;20113;-70
2023/05/31 08:32:18;;;;;;;9.65;2.85;;;;;;;22.23;56.20;99048.09;4459364;32;20915;-69
2023/05/31 08:34:46;;;;;;;4.45;2.72;;;;;;;22.18;58.24;99045.22;4466233;32;20821;-70
2023/05/31 08:37:13;;;;;;;5.75;2.50;;;;;;;22.35;58.67;99046.47;4461936;32;20117;-70
2023/05/31 08:39:40;;;;;;;6.87;2.60;;;;;;;22.54;56.14;99044.81;4460992;32;20151;-70
2023/05/31 08:42:19;;;;;;;8.43;2.60;;;;;;;22.56;56.00;99052.59;4463267;32;20096;-70
2023/05/31 08:44:46;;;;;;;6.12;2.70;;;;;;;22.49;56.63;99052.62;4462282;32;20127;-69
2023/05/31 08:47:21;;;;;;;5.93;2.97;;;;;;;22.38;56.72;99059.41;4461548;32;20090;-70
2023/05/31 08:49:49;;;;;;;6.85;3.10;;;;;;;22.45;55.78;99051.38;4460270;32;20104;-69
2023/05/31 08:52:17;;;;;;;9.48;3.15;;;;;;;22.35;54.29;99056.31;4457081;32;20113;-70
2023/05/31 08:54:45;;;;;;;12.55;3.00;;;;;;;22.68;56.17;99049.09;4451749;32;20124;-69
2023/05/31 08:57:13;;;;;;;12.75;3.10;;;;;;;22.56;55.28;99052.59;4457147;32;20173;-70
2023/05/31 08:59:41;;;;;;;10.68;3.08;;;;;;;22.66;54.97;99050.31;4460046;32;20108;-70
2023/05/31 09:02:09;;;;;;;7.95;2.78;;;;;;;22.79;55.61;99052.97;4459222;32;20105;-69
2023/05/31 09:04:39;;;;;;;7.80;3.15;;;;;;;22.63;54.36;99045.41;4453426;32;20155;-69
2023/05/31 09:07:07;;;;;;;4.68;3.10;;;;;;;22.47;53.95;99047.50;4462275;32;20534;-69
2023/05/31 09:09:34;;;;;;;6.15;3.25;;;;;;;22.73;54.15;99048.47;4460157;32;20466;-69
2023/05/31 09:12:02;;;;;;;5.78;3.53;;;;;;;22.78;54.76;99039.81;4456099;32;20153;-69
2023/05/31 09:14:30;;;;;;;8.30;3.10;;;;;;;22.78;53.13;99047.84;4460908;32;20089;-69
2023/05/31 09:16:57;;;;;;;7.15;2.97;;;;;;;22.96;53.46;99044.50;4462714;32;20141;-69
2023/05/31 09:19:24;;;;;;;9.43;3.35;;;;;;;23.18;54.00;99047.72;4461249;32;20267;-69
2023/05/31 09:21:52;;;;;;;7.68;3.10;;;;;;;23.10;52.73;99046.09;4461821;32;20474;-69
2023/05/31 09:24:19;;;;;;;7.28;3.35;;;;;;;23.20;51.73;99038.47;4458771;32;20085;-69
2023/05/31 09:26:48;;;;;;;5.15;2.97;;;;;;;23.23;51.10;99039.91;4459017;32;20105;-69
2023/05/31 09:29:17;;;;;;;6.70;3.20;;;;;;;23.37;52.41;99044.12;4460747;32;20771;-69
2023/05/31 09:31:45;;;;;;;5.60;3.42;;;;;;;23.41;51.38;99030.34;4460507;32;20154;-69
2023/05/31 09:34:32;;;;;;;7.07;3.42;;;;;;;23.49;52.97;99030.09;4460268;32;20183;-69
2023/05/31 09:36:59;;;;;;;4.28;3.30;;;;;;;23.42;50.49;99032.78;4463234;32;20093;-69
2023/05/31 09:39:27;;;;;;;6.68;3.20;;;;;;;23.77;52.23;99035.06;4465586;32;20150;-70
2023/05/31 09:41:56;;;;;;;8.20;3.58;;;;;;;23.94;50.82;99043.41;4465521;32;20096;-69
2023/05/31 09:44:27;;;;;;;8.40;3.37;;;;;;;23.82;51.38;99039.78;4464293;32;20167;-69
2023/05/31 09:46:56;;;;;;;10.60;3.25;;;;;;;23.78;51.86;99042.03;4465548;32;20093;-69
2023/05/31 09:49:24;;;;;;;11.10;3.05;;;;;;;23.70;52.87;99042.31;4467323;32;20152;-69
2023/05/31 09:51:52;;;;;;;9.68;3.35;;;;;;;23.72;51.82;99034.88;4463443;32;20105;-68
2023/05/31 09:54:24;;;;;;;10.93;3.65;;;;;;;23.98;53.01;99031.25;4465552;32;20181;-69
2023/05/31 09:56:54;;;;;;;8.50;3.00;;;;;;;23.99;50.90;99037.41;4469295;32;20152;-69
2023/05/31 09:59:22;;;;;;;5.82;3.35;;;;;;;24.06;52.98;99030.16;4463926;32;167860;-69
2023/05/31 10:01:50;;;;;;;20.80;4.75;;;;;;;24.17;47.64;99029.41;4465014;32;20617;-69
2023/05/31 10:04:18;;;;;;;11.02;3.40;;;;;;;24.15;50.71;99028.84;4467734;32;20092;-69
2023/05/31 10:06:46;;;;;;;5.03;3.05;;;;;;;24.05;50.51;99029.31;4466199;32;20088;-70
2023/05/31 10:09:13;;;;;;;8.63;3.10;;;;;;;23.73;49.26;99026.63;4466481;32;20687;-69
2023/05/31 10:11:44;;;;;;;9.40;3.17;;;;;;;23.71;50.68;99034.06;4467200;32;20492;-68
2023/05/31 10:14:32;;;;;;;6.15;3.28;;;;;;;24.11;51.62;99024.94;4456444;32;20108;-66
2023/05/31 10:17:02;;;;;;;12.52;3.55;;;;;;;24.14;48.60;99029.84;4463664;32;20187;-68
2023/05/31 10:19:35;;;;;;;7.35;3.53;;;;;;;24.03;49.29;99020.69;4466163;32;20104;-67
2023/05/31 10:22:03;;;;;;;12.73;3.45;;;;;;;24.42;51.78;99028.56;4462970;32;20234;-68
2023/05/31 10:24:38;;;;;;;4.60;3.17;;;;;;;24.50;47.57;99025.63;4466747;32;20135;-68
2023/05/31 10:27:13;;;;;;;10.07;3.65;;;;;;;24.38;48.82;99022.03;4465249;32;20104;-67
2023/05/31 10:29:43;;;;;;;16.15;3.75;;;;;;;24.60;45.99;99028.62;4467175;32;20455;-70
2023/05/31 10:32:19;;;;;;;8.35;3.28;;;;;;;24.54;47.98;99023.31;4464887;32;20108;-70
2023/05/31 10:34:47;;;;;;;9.38;3.37;;;;;;;24.71;47.09;99023.56;4464515;32;20089;-70
2023/05/31 10:37:15;;;;;;;7.18;3.80;;;;;;;25.03;49.52;99012.69;4459023;32;20096;-69
2023/05/31 10:40:09;;;;;;;9.85;3.40;;;;;;;24.91;47.30;99013.44;4463871;32;20101;-69
2023/05/31 10:42:52;;;;;;;10.18;4.72;;;;;;;24.86;49.42;99013.31;4464556;32;20526;-68
2023/05/31 10:45:30;;;;;;;8.80;3.10;;;;;;;25.36;57.03;99011.44;4459529;32;20085;-69
2023/05/31 10:48:21;;;;;;;10.95;4.07;;;;;;;25.31;50.57;99015.66;4460231;32;20435;-68
2023/05/31 10:50:58;;;;;;;9.02;3.47;;;;;;;25.20;47.43;99008.34;4463719;32;20151;-69
2023/05/31 10:53:31;;;;;;;5.65;3.40;;;;;;;24.96;45.42;99010.09;4459140;32;20088;-69
2023/05/31 10:56:06;;;;;;;4.25;3.45;;;;;;;24.67;45.69;99025.06;4460819;32;20127;-69
2023/05/31 10:58:38;;;;;;;9.30;3.25;;;;;;;24.74;48.06;99009.72;4466041;32;20088;-68
2023/05/31 11:01:13;;;;;;;8.27;4.75;;;;;;;24.97;46.27;99009.84;4460973;32;20406;-69
2023/05/31 11:03:47;;;;;;;8.05;3.80;;;;;;;25.04;47.44;99014.31;4453507;32;20140;-69
2023/05/31 11:06:17;;;;;;;6.50;3.55;;;;;;;25.18;46.89;99009.59;4456745;32;20153;-69
2023/05/31 11:09:08;;;;;;;5.65;3.65;;;;;;;25.43;48.74;99007.63;4457552;32;20085;-69
2023/05/31 11:11:42;;;;;;;6.22;3.62;;;;;;;25.49;44.62;99001.34;4455684;32;20109;-69
2023/05/31 11:14:28;;;;;;;6.82;3.70;;;;;;;25.65;45.67;99001.75;4456194;32;20222;-70
2023/05/31 11:17:02;;;;;;;6.80;3.53;;;;;;;25.02;47.11;99005.69;4460164;32;20815;-69
2023/05/31 11:19:30;;;;;;;7.95;3.30;;;;;;;24.71;47.61;98999.44;4458603;32;20097;-69
2023/05/31 11:22:08;;;;;;;8.48;3.65;;;;;;;24.53;46.83;98997.59;4457721;32;20108;-69
2023/05/31 11:24:39;;;;;;;3.75;3.10;;;;;;;24.23;46.98;98993.72;4454934;32;20201;-69
2023/05/31 11:27:12;;;;;;;12.48;3.50;;;;;;;24.08;47.60;98991.41;4460070;32;20161;-69
2023/05/31 11:29:48;;;;;;;11.63;3.72;;;;;;;24.60;48.20;98987.63;4458321;32;20122;-69
2023/05/31 11:32:16;;;;;;;17.23;3.87;;;;;;;25.05;50.21;98983.78;4458915;32;20140;-69
2023/05/31 11:34:54;;;;;;;7.35;3.58;;;;;;;25.10;47.31;98981.25;4467796;32;20112;-68
2023/05/31 11:37:21;;;;;;;5.68;3.30;;;;;;;24.77;48.22;98974.47;4463455;32;20089;-69
2023/05/31 11:39:54;;;;;;;8.55;3.58;;;;;;;24.79;50.00;98983.09;4469759;32;20088;-69